sensor_id;sensor_type;location;lat;lon;timestamp;pressure;altitude;pressure_sealevel;temperature;humidity
19259;BME280;9763;48.780;9.212;2023-05-13T00:02:05;98350.88;;;17.14;66.07
19259;BME280;9763;48.780;9.212;2023-05-13T00:05:29;98352.69;;;17.13;65.59
19259;BME280;9763;48.780;9.212;2023-05-13T00:08:54;98348.53;;;17.11;65.70
19259;BME280;9763;48.780;9.212;2023-05-13T00:12:18;98343.66;;;17.06;66.05
19259;BME280;9763;48.780;9.212;2023-05-13T00:15:43;98346.56;;;17.03;65.80
19259;BME280;9763;48.780;9.212;2023-05-13T00:19:07;98344.09;;;17.02;66.19
19259;BME280;9763;48.780;9.212;2023-05-13T00:22:30;98345.22;;;16.99;65.76
19259;BME280;9763;48.780;9.212;2023-05-13T00:25:54;98340.34;;;16.95;65.74
19259;BME280;9763;48.780;9.212;2023-05-13T00:29:18;98337.03;;;16.92;65.75
19259;BME280;9763;48.780;9.212;2023-05-13T00:32:43;98344.94;;;16.92;66.22
19259;BME280;9763;48.780;9.212;2023-05-13T00:36:08;98341.47;;;16.92;65.60
19259;BME280;9763;48.780;9.212;2023-05-13T00:39:33;98335.34;;;16.91;65.71
19259;BME280;9763;48.780;9.212;2023-05-13T00:42:57;98346.72;;;16.92;66.10
19259;BME280;9763;48.780;9.212;2023-05-13T00:46:21;98346.06;;;16.90;66.38
19259;BME280;9763;48.780;9.212;2023-05-13T00:49:46;98350.34;;;16.91;65.95
19259;BME280;9763;48.780;9.212;2023-05-13T00:53:11;98341.47;;;16.92;65.77
19259;BME280;9763;48.780;9.212;2023-05-13T00:56:37;98338.69;;;16.93;65.76
19259;BME280;9763;48.780;9.212;2023-05-13T01:00:01;98343.97;;;16.93;65.60
19259;BME280;9763;48.780;9.212;2023-05-13T01:03:34;98341.47;;;16.92;65.73
19259;BME280;9763;48.780;9.212;2023-05-13T01:07:13;98344.09;;;16.92;66.33
19259;BME280;9763;48.780;9.212;2023-05-13T01:10:46;98340.63;;;16.91;65.97
19259;BME280;9763;48.780;9.212;2023-05-13T01:14:22;98345.91;;;16.91;66.54
19259;BME280;9763;48.780;9.212;2023-05-13T01:17:54;98347.56;;;16.92;66.35
19259;BME280;9763;48.780;9.212;2023-05-13T01:21:24;98347.19;;;16.87;66.21
19259;BME280;9763;48.780;9.212;2023-05-13T01:24:49;98344.56;;;16.78;66.21
19259;BME280;9763;48.780;9.212;2023-05-13T01:28:14;98353.41;;;16.67;65.76
19259;BME280;9763;48.780;9.212;2023-05-13T01:31:43;98353.81;;;16.53;65.95
19259;BME280;9763;48.780;9.212;2023-05-13T01:35:10;98353.25;;;16.40;66.31
19259;BME280;9763;48.780;9.212;2023-05-13T01:38:40;98358.66;;;16.29;66.26
19259;BME280;9763;48.780;9.212;2023-05-13T01:42:05;98354.19;;;16.19;66.68
19259;BME280;9763;48.780;9.212;2023-05-13T01:45:29;98350.56;;;16.11;66.73
19259;BME280;9763;48.780;9.212;2023-05-13T01:48:56;98352.22;;;16.02;66.36
19259;BME280;9763;48.780;9.212;2023-05-13T01:52:19;98360.78;;;15.95;66.95
19259;BME280;9763;48.780;9.212;2023-05-13T01:55:44;98359.66;;;15.88;66.48
19259;BME280;9763;48.780;9.212;2023-05-13T01:59:09;98364.78;;;15.79;66.79
19259;BME280;9763;48.780;9.212;2023-05-13T02:02:32;98363.63;;;15.72;67.06
19259;BME280;9763;48.780;9.212;2023-05-13T02:05:57;98361.41;;;15.68;66.62
19259;BME280;9763;48.780;9.212;2023-05-13T02:09:21;98352.56;;;15.69;67.21
19259;BME280;9763;48.780;9.212;2023-05-13T02:12:46;98362.25;;;15.68;66.55
19259;BME280;9763;48.780;9.212;2023-05-13T02:16:13;98366.66;;;15.68;66.76
19259;BME280;9763;48.780;9.212;2023-05-13T02:19:37;98363.06;;;15.69;66.72
19259;BME280;9763;48.780;9.212;2023-05-13T02:23:01;98366.66;;;15.68;66.18
19259;BME280;9763;48.780;9.212;2023-05-13T02:26:24;98361.53;;;15.66;66.74
19259;BME280;9763;48.780;9.212;2023-05-13T02:29:49;98356.78;;;15.60;66.77
19259;BME280;9763;48.780;9.212;2023-05-13T02:33:13;98372.56;;;15.60;66.25
19259;BME280;9763;48.780;9.212;2023-05-13T02:36:37;98366.91;;;15.55;66.22
19259;BME280;9763;48.780;9.212;2023-05-13T02:40:00;98371.66;;;15.50;66.62
19259;BME280;9763;48.780;9.212;2023-05-13T02:43:24;98374.00;;;15.43;66.27
19259;BME280;9763;48.780;9.212;2023-05-13T02:46:55;98372.34;;;15.42;66.72
19259;BME280;9763;48.780;9.212;2023-05-13T02:50:19;98372.88;;;15.46;67.01
19259;BME280;9763;48.780;9.212;2023-05-13T02:53:44;98371.66;;;15.50;67.01
19259;BME280;9763;48.780;9.212;2023-05-13T02:57:07;98368.78;;;15.53;66.94
19259;BME280;9763;48.780;9.212;2023-05-13T03:00:32;98374.31;;;15.50;66.21
19259;BME280;9763;48.780;9.212;2023-05-13T03:03:57;98373.34;;;15.51;67.06
19259;BME280;9763;48.780;9.212;2023-05-13T03:07:22;98372.25;;;15.54;66.50
19259;BME280;9763;48.780;9.212;2023-05-13T03:10:46;98366.91;;;15.55;66.90
19259;BME280;9763;48.780;9.212;2023-05-13T03:14:09;98368.28;;;15.59;66.65
19259;BME280;9763;48.780;9.212;2023-05-13T03:17:33;98370.78;;;15.61;66.72
19259;BME280;9763;48.780;9.212;2023-05-13T03:20:58;98370.78;;;15.61;66.88
19259;BME280;9763;48.780;9.212;2023-05-13T03:24:22;98377.72;;;15.62;66.53
19259;BME280;9763;48.780;9.212;2023-05-13T03:27:46;98369.41;;;15.57;66.57
19259;BME280;9763;48.780;9.212;2023-05-13T03:31:13;98382.91;;;15.52;66.57
19259;BME280;9763;48.780;9.212;2023-05-13T03:34:38;98370.84;;;15.49;66.69
19259;BME280;9763;48.780;9.212;2023-05-13T03:38:03;98384.81;;;15.50;66.40
19259;BME280;9763;48.780;9.212;2023-05-13T03:41:31;98376.81;;;15.52;66.26
19259;BME280;9763;48.780;9.212;2023-05-13T03:44:55;98375.63;;;15.56;66.92
19259;BME280;9763;48.780;9.212;2023-05-13T03:48:19;98385.31;;;15.55;66.28
19259;BME280;9763;48.780;9.212;2023-05-13T03:51:44;98390.44;;;15.57;66.49
19259;BME280;9763;48.780;9.212;2023-05-13T03:55:09;98384.06;;;15.59;66.86
19259;BME280;9763;48.780;9.212;2023-05-13T03:58:33;98389.06;;;15.62;67.04
19259;BME280;9763;48.780;9.212;2023-05-13T04:01:58;98394.06;;;15.65;66.78
19259;BME280;9763;48.780;9.212;2023-05-13T04:05:22;98395.63;;;15.68;66.36
19259;BME280;9763;48.780;9.212;2023-05-13T04:08:47;98388.41;;;15.70;66.47
19259;BME280;9763;48.780;9.212;2023-05-13T04:12:12;98391.59;;;15.73;66.84
19259;BME280;9763;48.780;9.212;2023-05-13T04:15:40;98396.63;;;15.76;66.33
19259;BME280;9763;48.780;9.212;2023-05-13T04:19:04;98399.81;;;15.80;66.14
19259;BME280;9763;48.780;9.212;2023-05-13T04:22:28;98404.97;;;15.81;66.61
19259;BME280;9763;48.780;9.212;2023-05-13T04:25:51;98408.97;;;15.85;66.70
19259;BME280;9763;48.780;9.212;2023-05-13T04:29:16;98413.13;;;15.88;66.27
19259;BME280;9763;48.780;9.212;2023-05-13T04:32:41;98410.38;;;15.90;66.63
19259;BME280;9763;48.780;9.212;2023-05-13T04:36:06;98411.22;;;15.90;66.67
19259;BME280;9763;48.780;9.212;2023-05-13T04:39:30;98413.13;;;15.88;66.42
19259;BME280;9763;48.780;9.212;2023-05-13T04:42:54;98419.50;;;15.85;65.92
19259;BME280;9763;48.780;9.212;2023-05-13T04:46:25;98418.66;;;15.85;66.30
19259;BME280;9763;48.780;9.212;2023-05-13T04:49:49;98422.00;;;15.87;65.87
19259;BME280;9763;48.780;9.212;2023-05-13T04:53:13;98425.91;;;15.93;66.01
19259;BME280;9763;48.780;9.212;2023-05-13T04:56:39;98421.31;;;15.95;66.45
19259;BME280;9763;48.780;9.212;2023-05-13T05:00:04;98431.59;;;15.98;66.55
19259;BME280;9763;48.780;9.212;2023-05-13T05:03:34;98428.00;;;15.99;65.80
19259;BME280;9763;48.780;9.212;2023-05-13T05:06:59;98441.03;;;16.00;66.41
19259;BME280;9763;48.780;9.212;2023-05-13T05:10:23;98425.25;;;16.00;66.22
19259;BME280;9763;48.780;9.212;2023-05-13T05:13:52;98441.88;;;16.01;66.12
19259;BME280;9763;48.780;9.212;2023-05-13T05:17:15;98442.84;;;16.00;66.29
19259;BME280;9763;48.780;9.212;2023-05-13T05:20:41;98439.09;;;16.02;65.95
19259;BME280;9763;48.780;9.212;2023-05-13T05:24:10;98448.69;;;16.03;65.64
19259;BME280;9763;48.780;9.212;2023-05-13T05:27:34;98442.44;;;16.04;65.62
19259;BME280;9763;48.780;9.212;2023-05-13T05:30:59;98444.13;;;16.05;65.70
19259;BME280;9763;48.780;9.212;2023-05-13T05:34:25;98455.47;;;16.06;65.73
19259;BME280;9763;48.780;9.212;2023-05-13T05:37:51;98458.53;;;16.11;65.46
19259;BME280;9763;48.780;9.212;2023-05-13T05:41:15;98461.03;;;16.12;65.97
19259;BME280;9763;48.780;9.212;2023-05-13T05:44:40;98454.69;;;16.15;66.00
19259;BME280;9763;48.780;9.212;2023-05-13T05:48:05;98451.72;;;16.08;66.14
19259;BME280;9763;48.780;9.212;2023-05-13T05:51:29;98463.41;;;16.15;65.46
19259;BME280;9763;48.780;9.212;2023-05-13T05:54:57;98462.56;;;16.15;66.07
19259;BME280;9763;48.780;9.212;2023-05-13T05:58:20;98462.44;;;16.16;65.44
19259;BME280;9763;48.780;9.212;2023-05-13T06:01:45;98467.59;;;16.18;65.60
19259;BME280;9763;48.780;9.212;2023-05-13T06:05:09;98431.72;;;15.96;65.42
19259;BME280;9763;48.780;9.212;2023-05-13T06:08:35;98456.63;;;16.23;66.10
19259;BME280;9763;48.780;9.212;2023-05-13T06:12:00;98469.66;;;16.24;65.86
19259;BME280;9763;48.780;9.212;2023-05-13T06:15:27;98475.66;;;16.26;65.49
19259;BME280;9763;48.780;9.212;2023-05-13T06:18:50;98470.25;;;16.28;66.11
19259;BME280;9763;48.780;9.212;2023-05-13T06:22:14;98476.34;;;16.28;65.45
19259;BME280;9763;48.780;9.212;2023-05-13T06:25:39;98443.69;;;16.10;65.88
19259;BME280;9763;48.780;9.212;2023-05-13T06:29:04;98472.75;;;16.29;65.44
19259;BME280;9763;48.780;9.212;2023-05-13T06:32:29;98478.56;;;16.33;65.54
19259;BME280;9763;48.780;9.212;2023-05-13T06:35:52;98477.22;;;16.38;66.04
19259;BME280;9763;48.780;9.212;2023-05-13T06:39:18;98475.94;;;16.42;65.63
19259;BME280;9763;48.780;9.212;2023-05-13T06:42:42;98477.09;;;16.49;65.90
19259;BME280;9763;48.780;9.212;2023-05-13T06:46:16;98473.06;;;16.55;65.25
19259;BME280;9763;48.780;9.212;2023-05-13T06:49:40;98479.63;;;16.61;65.96
19259;BME280;9763;48.780;9.212;2023-05-13T06:53:04;98479.66;;;16.70;65.78
19259;BME280;9763;48.780;9.212;2023-05-13T06:56:29;98476.06;;;16.81;65.30
19259;BME280;9763;48.780;9.212;2023-05-13T06:59:53;98473.84;;;16.86;65.17
19259;BME280;9763;48.780;9.212;2023-05-13T07:03:18;98472.06;;;16.96;65.93
19259;BME280;9763;48.780;9.212;2023-05-13T07:06:42;98480.41;;;17.01;65.43
19259;BME280;9763;48.780;9.212;2023-05-13T07:10:06;98484.13;;;17.08;65.28
19259;BME280;9763;48.780;9.212;2023-05-13T07:13:30;98476.22;;;17.18;65.16
19259;BME280;9763;48.780;9.212;2023-05-13T07:16:56;98474.25;;;17.29;65.63
19259;BME280;9763;48.780;9.212;2023-05-13T07:20:22;98481.06;;;17.42;64.95
19259;BME280;9763;48.780;9.212;2023-05-13T07:23:48;98490.47;;;17.54;65.39
19259;BME280;9763;48.780;9.212;2023-05-13T07:27:11;98482.97;;;17.59;65.12
19259;BME280;9763;48.780;9.212;2023-05-13T07:30:35;98494.50;;;17.58;64.69
19259;BME280;9763;48.780;9.212;2023-05-13T07:34:02;98485.91;;;17.56;64.96
19259;BME280;9763;48.780;9.212;2023-05-13T07:37:27;98487.28;;;17.60;64.57
19259;BME280;9763;48.780;9.212;2023-05-13T07:40:51;98484.66;;;17.70;65.03
19259;BME280;9763;48.780;9.212;2023-05-13T07:44:15;98478.38;;;17.80;64.45
19259;BME280;9763;48.780;9.212;2023-05-13T07:47:39;98475.00;;;17.97;64.37
19259;BME280;9763;48.780;9.212;2023-05-13T07:51:06;98477.13;;;18.12;64.61
19259;BME280;9763;48.780;9.212;2023-05-13T07:54:32;98483.25;;;18.22;64.09
19259;BME280;9763;48.780;9.212;2023-05-13T07:57:56;98490.84;;;18.34;64.26
19259;BME280;9763;48.780;9.212;2023-05-13T08:01:20;98496.06;;;18.44;64.05
19259;BME280;9763;48.780;9.212;2023-05-13T08:04:44;98486.84;;;18.48;63.77
19259;BME280;9763;48.780;9.212;2023-05-13T08:08:08;98492.31;;;18.47;63.70
19259;BME280;9763;48.780;9.212;2023-05-13T08:11:33;98488.41;;;18.41;63.70
19259;BME280;9763;48.780;9.212;2023-05-13T08:14:56;98493.72;;;18.41;63.97
19259;BME280;9763;48.780;9.212;2023-05-13T08:18:20;98493.41;;;18.44;64.34
19259;BME280;9763;48.780;9.212;2023-05-13T08:21:44;98474.56;;;18.29;64.11
19259;BME280;9763;48.780;9.212;2023-05-13T08:25:08;98496.91;;;18.45;64.28
19259;BME280;9763;48.780;9.212;2023-05-13T08:28:35;98493.41;;;18.44;64.09
19259;BME280;9763;48.780;9.212;2023-05-13T08:31:59;98506.88;;;18.51;64.21
19259;BME280;9763;48.780;9.212;2023-05-13T08:35:23;98504.09;;;18.52;64.28
19259;BME280;9763;48.780;9.212;2023-05-13T08:38:47;98503.38;;;18.50;63.69
19259;BME280;9763;48.780;9.212;2023-05-13T08:42:11;98509.66;;;18.49;64.13
19259;BME280;9763;48.780;9.212;2023-05-13T08:45:39;98472.91;;;18.28;63.76
19259;BME280;9763;48.780;9.212;2023-05-13T08:49:03;98511.31;;;18.50;64.18
19259;BME280;9763;48.780;9.212;2023-05-13T08:52:27;98509.78;;;18.48;63.39
19259;BME280;9763;48.780;9.212;2023-05-13T08:55:52;98506.38;;;18.38;63.93
19259;BME280;9763;48.780;9.212;2023-05-13T08:59:17;98512.25;;;18.31;63.49
19259;BME280;9763;48.780;9.212;2023-05-13T09:02:43;98506.44;;;18.28;63.55
19259;BME280;9763;48.780;9.212;2023-05-13T09:06:07;98515.19;;;18.28;63.78
19259;BME280;9763;48.780;9.212;2023-05-13T09:09:31;98519.50;;;18.29;63.63
19259;BME280;9763;48.780;9.212;2023-05-13T09:12:55;98517.09;;;18.36;63.87
19259;BME280;9763;48.780;9.212;2023-05-13T09:16:21;98510.50;;;18.50;64.18
19259;BME280;9763;48.780;9.212;2023-05-13T09:19:46;98509.06;;;18.65;63.46
19259;BME280;9763;48.780;9.212;2023-05-13T09:23:11;98514.75;;;18.70;63.88
19259;BME280;9763;48.780;9.212;2023-05-13T09:26:38;98514.59;;;18.72;63.86
19259;BME280;9763;48.780;9.212;2023-05-13T09:30:02;98510.50;;;18.77;63.64
19259;BME280;9763;48.780;9.212;2023-05-13T09:33:29;98491.78;;;18.70;63.72
19259;BME280;9763;48.780;9.212;2023-05-13T09:37:01;98501.16;;;18.83;62.95
19259;BME280;9763;48.780;9.212;2023-05-13T09:40:25;98508.34;;;18.90;63.34
19259;BME280;9763;48.780;9.212;2023-05-13T09:43:49;98500.56;;;18.89;63.21
19259;BME280;9763;48.780;9.212;2023-05-13T09:47:15;98516.59;;;19.05;63.12
19259;BME280;9763;48.780;9.212;2023-05-13T09:50:46;98525.22;;;19.25;62.92
19259;BME280;9763;48.780;9.212;2023-05-13T09:54:12;98514.63;;;19.42;63.06
19259;BME280;9763;48.780;9.212;2023-05-13T09:57:37;98509.13;;;19.54;62.28
19259;BME280;9763;48.780;9.212;2023-05-13T10:01:02;98512.19;;;19.67;62.36
19259;BME280;9763;48.780;9.212;2023-05-13T10:04:27;98516.41;;;19.77;62.32
19259;BME280;9763;48.780;9.212;2023-05-13T10:07:52;98520.59;;;19.80;62.10
19259;BME280;9763;48.780;9.212;2023-05-13T10:11:18;98519.56;;;19.81;62.15
19259;BME280;9763;48.780;9.212;2023-05-13T10:14:43;98518.09;;;19.78;62.74
19259;BME280;9763;48.780;9.212;2023-05-13T10:18:07;98521.91;;;19.84;62.23
19259;BME280;9763;48.780;9.212;2023-05-13T10:21:33;98517.13;;;19.88;62.05
19259;BME280;9763;48.780;9.212;2023-05-13T10:25:00;98509.50;;;19.85;62.35
19259;BME280;9763;48.780;9.212;2023-05-13T10:28:26;98515.06;;;19.73;62.23
19259;BME280;9763;48.780;9.212;2023-05-13T10:31:51;98504.03;;;19.60;62.05
19259;BME280;9763;48.780;9.212;2023-05-13T10:35:19;98508.97;;;19.55;62.59
19259;BME280;9763;48.780;9.212;2023-05-13T10:39:05;98512.63;;;19.44;62.47
19259;BME280;9763;48.780;9.212;2023-05-13T10:42:43;98517.19;;;19.34;62.82
19259;BME280;9763;48.780;9.212;2023-05-13T10:46:14;98514.53;;;19.34;62.40
19259;BME280;9763;48.780;9.212;2023-05-13T10:49:38;98517.34;;;19.33;62.99
19259;BME280;9763;48.780;9.212;2023-05-13T10:53:07;98528.53;;;19.27;62.96
19259;BME280;9763;48.780;9.212;2023-05-13T10:56:32;98520.47;;;19.28;62.57
19259;BME280;9763;48.780;9.212;2023-05-13T11:00:12;98522.28;;;19.28;62.70
19259;BME280;9763;48.780;9.212;2023-05-13T11:03:40;98515.28;;;19.44;63.02
19259;BME280;9763;48.780;9.212;2023-05-13T11:07:14;98521.34;;;19.72;62.62
19259;BME280;9763;48.780;9.212;2023-05-13T11:10:40;98516.56;;;20.28;62.22
19259;BME280;9763;48.780;9.212;2023-05-13T11:14:14;98509.50;;;20.87;61.82
19259;BME280;9763;48.780;9.212;2023-05-13T11:17:38;98504.78;;;21.23;61.19
19259;BME280;9763;48.780;9.212;2023-05-13T11:21:06;98504.13;;;21.29;60.83
19259;BME280;9763;48.780;9.212;2023-05-13T11:24:31;98506.78;;;21.29;60.94
19259;BME280;9763;48.780;9.212;2023-05-13T11:27:54;98512.06;;;21.29;61.32
19259;BME280;9763;48.780;9.212;2023-05-13T11:31:18;98505.47;;;21.25;61.27
19259;BME280;9763;48.780;9.212;2023-05-13T11:34:50;98493.94;;;21.00;61.29
19259;BME280;9763;48.780;9.212;2023-05-13T11:38:23;98509.50;;;20.87;61.29
19259;BME280;9763;48.780;9.212;2023-05-13T11:41:49;98518.22;;;20.63;61.27
19259;BME280;9763;48.780;9.212;2023-05-13T11:45:13;98515.97;;;20.42;62.18
19259;BME280;9763;48.780;9.212;2023-05-13T11:48:38;98511.59;;;20.33;61.88
19259;BME280;9763;48.780;9.212;2023-05-13T11:52:04;98509.75;;;20.25;61.46
19259;BME280;9763;48.780;9.212;2023-05-13T11:55:31;98511.50;;;20.17;61.91
19259;BME280;9763;48.780;9.212;2023-05-13T11:59:11;98504.88;;;20.12;62.19
19259;BME280;9763;48.780;9.212;2023-05-13T12:02:37;98512.66;;;20.14;62.10
19259;BME280;9763;48.780;9.212;2023-05-13T12:06:02;98510.88;;;20.23;61.87
19259;BME280;9763;48.780;9.212;2023-05-13T12:09:27;98513.91;;;20.28;61.73
19259;BME280;9763;48.780;9.212;2023-05-13T12:12:53;98513.38;;;20.24;61.40
19259;BME280;9763;48.780;9.212;2023-05-13T12:16:17;98512.34;;;20.17;61.18
19259;BME280;9763;48.780;9.212;2023-05-13T12:20:10;98512.44;;;20.07;61.71
19259;BME280;9763;48.780;9.212;2023-05-13T12:23:38;98485.91;;;19.99;61.60
19259;BME280;9763;48.780;9.212;2023-05-13T12:27:06;98513.56;;;20.31;61.45
19259;BME280;9763;48.780;9.212;2023-05-13T12:30:34;98510.06;;;20.56;61.19
19259;BME280;9763;48.780;9.212;2023-05-13T12:33:58;98508.47;;;20.79;61.41
19259;BME280;9763;48.780;9.212;2023-05-13T12:37:23;98512.84;;;20.97;60.82
19259;BME280;9763;48.780;9.212;2023-05-13T12:40:49;98514.03;;;21.10;61.01
19259;BME280;9763;48.780;9.212;2023-05-13T12:44:14;98512.91;;;21.29;60.43
19259;BME280;9763;48.780;9.212;2023-05-13T12:47:49;98495.81;;;21.40;59.72
19259;BME280;9763;48.780;9.212;2023-05-13T12:51:14;98510.94;;;21.72;59.96
19259;BME280;9763;48.780;9.212;2023-05-13T12:54:37;98511.22;;;22.01;59.60
19259;BME280;9763;48.780;9.212;2023-05-13T12:58:02;98513.56;;;22.51;59.56
19259;BME280;9763;48.780;9.212;2023-05-13T13:01:26;98506.13;;;23.09;57.97
19259;BME280;9763;48.780;9.212;2023-05-13T13:04:52;98496.66;;;23.75;57.18
19259;BME280;9763;48.780;9.212;2023-05-13T13:08:16;98503.78;;;24.56;55.54
19259;BME280;9763;48.780;9.212;2023-05-13T13:11:40;98496.50;;;25.86;54.03
19259;BME280;9763;48.780;9.212;2023-05-13T13:15:05;98494.78;;;26.34;53.09
19259;BME280;9763;48.780;9.212;2023-05-13T13:18:29;98503.09;;;25.62;53.80
19259;BME280;9763;48.780;9.212;2023-05-13T13:21:54;98498.63;;;24.69;54.76
19259;BME280;9763;48.780;9.212;2023-05-13T13:25:18;98496.03;;;23.87;56.02
19259;BME280;9763;48.780;9.212;2023-05-13T13:28:42;98501.13;;;23.37;57.44
19259;BME280;9763;48.780;9.212;2023-05-13T13:32:06;98486.88;;;23.29;57.83
19259;BME280;9763;48.780;9.212;2023-05-13T13:35:30;98484.59;;;23.64;56.38
19259;BME280;9763;48.780;9.212;2023-05-13T13:38:55;98468.88;;;23.54;56.53
19259;BME280;9763;48.780;9.212;2023-05-13T13:42:19;98480.72;;;23.29;57.18
19259;BME280;9763;48.780;9.212;2023-05-13T13:45:48;98476.81;;;22.94;57.02
19259;BME280;9763;48.780;9.212;2023-05-13T13:49:12;98469.13;;;22.60;58.07
19259;BME280;9763;48.780;9.212;2023-05-13T13:52:45;98475.56;;;22.35;58.07
19259;BME280;9763;48.780;9.212;2023-05-13T13:56:10;98477.75;;;22.23;57.99
19259;BME280;9763;48.780;9.212;2023-05-13T13:59:34;98485.94;;;22.13;58.39
19259;BME280;9763;48.780;9.212;2023-05-13T14:02:58;98481.16;;;22.01;58.31
19259;BME280;9763;48.780;9.212;2023-05-13T14:06:24;98471.19;;;21.86;58.62
19259;BME280;9763;48.780;9.212;2023-05-13T14:09:49;98481.84;;;21.62;57.77
19259;BME280;9763;48.780;9.212;2023-05-13T14:13:15;98481.38;;;21.42;57.91
19259;BME280;9763;48.780;9.212;2023-05-13T14:16:39;98471.78;;;21.25;57.85
19259;BME280;9763;48.780;9.212;2023-05-13T14:20:04;98475.84;;;21.03;57.67
19259;BME280;9763;48.780;9.212;2023-05-13T14:23:29;98478.13;;;20.82;58.50
19259;BME280;9763;48.780;9.212;2023-05-13T14:26:52;98480.59;;;20.67;58.44
19259;BME280;9763;48.780;9.212;2023-05-13T14:30:17;98463.97;;;20.49;58.22
19259;BME280;9763;48.780;9.212;2023-05-13T14:33:42;98479.88;;;20.49;59.13
19259;BME280;9763;48.780;9.212;2023-05-13T14:37:06;98473.25;;;20.53;58.99
19259;BME280;9763;48.780;9.212;2023-05-13T14:40:29;98481.72;;;20.57;58.68
19259;BME280;9763;48.780;9.212;2023-05-13T14:43:55;98474.75;;;20.56;57.91
19259;BME280;9763;48.780;9.212;2023-05-13T14:47:21;98470.13;;;20.58;58.12
19259;BME280;9763;48.780;9.212;2023-05-13T14:50:46;98468.13;;;20.60;58.44
19259;BME280;9763;48.780;9.212;2023-05-13T14:54:11;98464.81;;;20.58;58.24
19259;BME280;9763;48.780;9.212;2023-05-13T14:57:36;98463.16;;;20.57;58.63
19259;BME280;9763;48.780;9.212;2023-05-13T15:01:00;98459.97;;;20.53;59.04
19259;BME280;9763;48.780;9.212;2023-05-13T15:04:25;98463.81;;;20.59;59.31
19259;BME280;9763;48.780;9.212;2023-05-13T15:07:49;98454.41;;;20.64;58.66
19259;BME280;9763;48.780;9.212;2023-05-13T15:11:13;98458.06;;;20.71;58.40
19259;BME280;9763;48.780;9.212;2023-05-13T15:14:37;98455.94;;;20.83;58.90
19259;BME280;9763;48.780;9.212;2023-05-13T15:18:01;98457.44;;;20.94;58.11
19259;BME280;9763;48.780;9.212;2023-05-13T15:21:26;98445.66;;;20.96;58.55
19259;BME280;9763;48.780;9.212;2023-05-13T15:24:50;98445.31;;;20.91;58.18
19259;BME280;9763;48.780;9.212;2023-05-13T15:28:14;98444.13;;;20.77;58.81
19259;BME280;9763;48.780;9.212;2023-05-13T15:31:38;98440.47;;;20.70;58.98
19259;BME280;9763;48.780;9.212;2023-05-13T15:35:02;98443.13;;;20.70;58.98
19259;BME280;9763;48.780;9.212;2023-05-13T15:38:28;98442.81;;;20.73;58.88
19259;BME280;9763;48.780;9.212;2023-05-13T15:41:51;98436.69;;;20.73;59.13
19259;BME280;9763;48.780;9.212;2023-05-13T15:45:16;98433.34;;;20.63;59.23
19259;BME280;9763;48.780;9.212;2023-05-13T15:48:40;98428.69;;;20.57;59.21
19259;BME280;9763;48.780;9.212;2023-05-13T15:52:04;98423.88;;;20.60;59.32
19259;BME280;9763;48.780;9.212;2023-05-13T15:55:30;98421.41;;;20.67;58.88
19259;BME280;9763;48.780;9.212;2023-05-13T15:58:54;98424.06;;;20.67;58.79
19259;BME280;9763;48.780;9.212;2023-05-13T16:02:18;98416.59;;;20.62;58.78
19259;BME280;9763;48.780;9.212;2023-05-13T16:05:43;98426.84;;;20.57;59.13
19259;BME280;9763;48.780;9.212;2023-05-13T16:09:07;98411.44;;;20.53;58.71
19259;BME280;9763;48.780;9.212;2023-05-13T16:12:32;98415.56;;;20.39;58.84
19259;BME280;9763;48.780;9.212;2023-05-13T16:15:56;98416.13;;;20.25;58.86
19259;BME280;9763;48.780;9.212;2023-05-13T16:19:20;98419.06;;;20.13;59.01
19259;BME280;9763;48.780;9.212;2023-05-13T16:22:44;98422.16;;;20.01;59.21
19259;BME280;9763;48.780;9.212;2023-05-13T16:26:08;98428.88;;;19.87;59.68
19259;BME280;9763;48.780;9.212;2023-05-13T16:29:34;98417.72;;;19.75;59.75
19259;BME280;9763;48.780;9.212;2023-05-13T16:32:58;98417.50;;;19.69;59.37
19259;BME280;9763;48.780;9.212;2023-05-13T16:36:22;98420.97;;;19.61;59.33
19259;BME280;9763;48.780;9.212;2023-05-13T16:39:46;98423.22;;;19.56;60.04
19259;BME280;9763;48.780;9.212;2023-05-13T16:43:10;98421.06;;;19.52;60.14
19259;BME280;9763;48.780;9.212;2023-05-13T16:46:35;98403.75;;;19.39;60.08
19259;BME280;9763;48.780;9.212;2023-05-13T16:49:59;98421.91;;;19.52;59.80
19259;BME280;9763;48.780;9.212;2023-05-13T16:53:23;98420.91;;;19.53;59.72
19259;BME280;9763;48.780;9.212;2023-05-13T16:56:48;98414.94;;;19.51;59.55
19259;BME280;9763;48.780;9.212;2023-05-13T17:00:13;98415.34;;;19.47;59.56
19259;BME280;9763;48.780;9.212;2023-05-13T17:03:38;98408.59;;;19.44;60.40
19259;BME280;9763;48.780;9.212;2023-05-13T17:07:02;98412.03;;;19.44;59.78
19259;BME280;9763;48.780;9.212;2023-05-13T17:10:26;98406.75;;;19.44;59.77
19259;BME280;9763;48.780;9.212;2023-05-13T17:13:49;98409.38;;;19.44;60.49
19259;BME280;9763;48.780;9.212;2023-05-13T17:17:13;98405.75;;;19.46;59.66
19259;BME280;9763;48.780;9.212;2023-05-13T17:20:38;98413.06;;;19.43;59.81
19259;BME280;9763;48.780;9.212;2023-05-13T17:24:02;98412.38;;;19.41;59.90
19259;BME280;9763;48.780;9.212;2023-05-13T17:27:26;98404.88;;;19.37;60.33
19259;BME280;9763;48.780;9.212;2023-05-13T17:30:50;98413.81;;;19.36;60.09
19259;BME280;9763;48.780;9.212;2023-05-13T17:34:14;98417.44;;;19.35;60.37
19259;BME280;9763;48.780;9.212;2023-05-13T17:37:39;98413.13;;;19.34;60.30
19259;BME280;9763;48.780;9.212;2023-05-13T17:41:03;98401.50;;;19.27;60.49
19259;BME280;9763;48.780;9.212;2023-05-13T17:44:27;98414.94;;;19.33;60.07
19259;BME280;9763;48.780;9.212;2023-05-13T17:47:51;98413.28;;;19.32;60.08
19259;BME280;9763;48.780;9.212;2023-05-13T17:51:15;98421.53;;;19.29;60.12
19259;BME280;9763;48.780;9.212;2023-05-13T17:54:40;98413.91;;;19.26;60.40
19259;BME280;9763;48.780;9.212;2023-05-13T17:58:04;98413.06;;;19.26;60.09
19259;BME280;9763;48.780;9.212;2023-05-13T18:01:28;98412.38;;;19.24;60.15
19259;BME280;9763;48.780;9.212;2023-05-13T18:04:52;98415.19;;;19.22;60.08
19259;BME280;9763;48.780;9.212;2023-05-13T18:08:15;98417.16;;;19.20;60.19
19259;BME280;9763;48.780;9.212;2023-05-13T18:11:40;98411.84;;;19.20;60.21
19259;BME280;9763;48.780;9.212;2023-05-13T18:15:05;98409.22;;;19.20;60.94
19259;BME280;9763;48.780;9.212;2023-05-13T18:18:30;98413.72;;;19.20;60.34
19259;BME280;9763;48.780;9.212;2023-05-13T18:21:54;98414.69;;;19.19;60.83